createdAt,value
2022-10-07T00:01:18.381Z,2.63
2022-10-07T00:03:46.777Z,2.97
2022-10-07T00:06:16.761Z,2.53
2022-10-07T00:08:46.804Z,2.60
2022-10-07T00:11:17.134Z,3.10
2022-10-07T00:13:47.565Z,3.13
2022-10-07T00:16:20.195Z,4.23
2022-10-07T00:18:49.274Z,4.53
2022-10-07T00:21:19.302Z,6.67
2022-10-07T00:23:48.849Z,6.57
2022-10-07T00:26:18.852Z,5.93
2022-10-07T00:28:47.756Z,6.33
2022-10-07T00:31:19.773Z,5.10
2022-10-07T00:33:49.125Z,5.77
2022-10-07T00:36:19.777Z,5.87
2022-10-07T00:38:51.366Z,5.17
2022-10-07T00:41:22.489Z,5.50
2022-10-07T00:43:51.156Z,5.70
2022-10-07T00:46:29.417Z,5.60
2022-10-07T00:49:00.458Z,6.00
2022-10-07T00:51:29.441Z,5.57
2022-10-07T00:53:58.099Z,5.23
2022-10-07T00:56:29.341Z,4.83
2022-10-07T00:59:00.008Z,4.50
2022-10-07T01:01:31.231Z,4.93
2022-10-07T01:03:59.836Z,6.37
2022-10-07T01:06:28.207Z,5.63
2022-10-07T01:08:57.633Z,5.57
2022-10-07T01:11:40.333Z,5.73
2022-10-07T01:14:14.663Z,6.67
2022-10-07T01:16:52.365Z,6.30
2022-10-07T01:19:39.866Z,6.73
2022-10-07T01:22:20.886Z,6.20
2022-10-07T01:25:04.130Z,5.73
2022-10-07T01:27:36.992Z,6.17
2022-10-07T01:30:08.668Z,5.43
2022-10-07T01:32:40.998Z,5.67
2022-10-07T01:35:14.670Z,5.13
2022-10-07T01:37:49.508Z,5.50
2022-10-07T01:40:23.442Z,6.13
2022-10-07T01:42:53.207Z,5.57
2022-10-07T01:45:25.454Z,5.50
2022-10-07T01:47:53.875Z,6.80
2022-10-07T01:50:25.418Z,7.57
2022-10-07T01:53:06.505Z,7.97
2022-10-07T01:55:52.697Z,7.23
2022-10-07T01:58:34.168Z,6.87
2022-10-07T02:01:09.381Z,7.30
2022-10-07T02:03:52.338Z,7.40
2022-10-07T02:06:32.138Z,7.10
2022-10-07T02:09:08.679Z,6.90
2022-10-07T02:11:41.820Z,7.77
2022-10-07T02:14:13.255Z,7.63
2022-10-07T02:16:43.299Z,7.70
2022-10-07T02:19:16.991Z,7.67
2022-10-07T02:21:50.739Z,7.77
2022-10-07T02:24:22.412Z,8.07
2022-10-07T02:26:53.287Z,8.13
2022-10-07T02:29:26.326Z,7.93
2022-10-07T02:31:57.495Z,8.13
2022-10-07T02:34:28.549Z,8.27
2022-10-07T02:37:02.925Z,9.47
2022-10-07T02:39:31.400Z,7.63
2022-10-07T02:42:05.892Z,7.00
2022-10-07T02:44:42.299Z,6.53
2022-10-07T02:47:17.773Z,6.33
2022-10-07T02:49:50.283Z,6.97
2022-10-07T02:52:20.616Z,5.80
2022-10-07T02:54:54.410Z,6.80
2022-10-07T02:57:24.987Z,7.13
2022-10-07T02:59:56.519Z,6.50
2022-10-07T03:02:31.083Z,6.73
2022-10-07T03:04:59.492Z,7.40
2022-10-07T03:07:28.175Z,7.47
2022-10-07T03:09:56.679Z,6.90
2022-10-07T03:12:25.072Z,7.30
2022-10-07T03:14:54.778Z,6.87
2022-10-07T03:17:23.160Z,6.93
2022-10-07T03:19:51.529Z,7.47
2022-10-07T03:22:20.667Z,6.30
2022-10-07T03:24:49.012Z,6.70
2022-10-07T03:27:17.348Z,5.93
2022-10-07T03:29:45.690Z,5.63
2022-10-07T03:32:15.681Z,5.63
2022-10-07T03:34:44.075Z,5.70
2022-10-07T03:37:12.613Z,5.53
2022-10-07T03:39:40.947Z,5.20
2022-10-07T03:42:09.361Z,5.07
2022-10-07T03:44:38.333Z,4.53
2022-10-07T03:47:10.707Z,4.50
2022-10-07T03:49:42.228Z,4.23
2022-10-07T03:52:10.575Z,4.87
2022-10-07T03:54:38.913Z,4.87
2022-10-07T03:57:27.397Z,4.63
2022-10-07T03:59:55.898Z,5.90
2022-10-07T04:02:24.425Z,5.07
2022-10-07T04:04:54.124Z,5.47
2022-10-07T04:07:22.821Z,4.97
2022-10-07T04:09:51.199Z,5.60
2022-10-07T04:12:19.512Z,6.80
2022-10-07T04:14:47.880Z,7.10
2022-10-07T04:17:18.865Z,6.97
2022-10-07T04:19:47.302Z,6.77
2022-10-07T04:22:17.114Z,7.00
2022-10-07T04:25:05.488Z,7.47
2022-10-07T04:27:58.047Z,7.30
2022-10-07T04:30:23.277Z,7.07
2022-10-07T04:32:52.175Z,6.70
2022-10-07T04:35:21.591Z,7.53
2022-10-07T04:37:52.269Z,8.17
2022-10-07T04:40:22.056Z,7.37
2022-10-07T04:43:08.541Z,5.37
2022-10-07T04:45:38.243Z,4.73
2022-10-07T04:48:06.806Z,5.07
2022-10-07T04:50:37.559Z,4.53
2022-10-07T04:53:07.634Z,4.10
2022-10-07T04:55:41.172Z,4.43
2022-10-07T04:58:10.953Z,4.30
2022-10-07T05:00:45.204Z,4.60
2022-10-07T05:03:15.035Z,4.17
2022-10-07T05:05:44.579Z,4.90
2022-10-07T05:08:15.549Z,5.73
2022-10-07T05:10:47.218Z,5.43
2022-10-07T05:13:17.304Z,6.13
2022-10-07T05:15:49.743Z,6.10
2022-10-07T05:18:20.133Z,6.10
2022-10-07T05:20:49.267Z,6.23
2022-10-07T05:23:25.642Z,6.73
2022-10-07T05:26:00.145Z,30.93
2022-10-07T05:28:28.778Z,17.43
2022-10-07T05:31:08.283Z,8.73
2022-10-07T05:33:37.760Z,8.43
2022-10-07T05:36:07.972Z,7.57
2022-10-07T05:38:38.188Z,6.53
2022-10-07T05:41:08.744Z,6.50
2022-10-07T05:43:40.506Z,6.37
2022-10-07T05:46:11.421Z,5.83
2022-10-07T05:48:40.176Z,5.50
2022-10-07T05:51:09.206Z,6.20
2022-10-07T05:53:41.240Z,6.20
2022-10-07T05:56:12.652Z,5.70
2022-10-07T05:58:41.039Z,4.50
2022-10-07T06:01:15.197Z,4.63
2022-10-07T06:03:44.378Z,4.70
2022-10-07T06:06:12.747Z,4.20
2022-10-07T06:08:42.620Z,4.67
2022-10-07T06:11:30.903Z,4.77
2022-10-07T06:13:59.314Z,4.20
2022-10-07T06:16:28.356Z,6.13
2022-10-07T06:18:57.539Z,7.67
2022-10-07T06:21:28.129Z,5.40
2022-10-07T06:23:59.045Z,4.77
2022-10-07T06:26:27.378Z,4.87
2022-10-07T06:28:55.707Z,4.60
2022-10-07T06:31:25.733Z,11.60
2022-10-07T06:33:55.142Z,5.70
2022-10-07T06:36:24.111Z,4.17
2022-10-07T06:38:53.896Z,3.80
2022-10-07T06:41:24.072Z,4.57
2022-10-07T06:43:56.394Z,4.50
2022-10-07T06:46:24.923Z,4.50
2022-10-07T06:48:53.732Z,4.17
2022-10-07T06:51:23.155Z,4.40
2022-10-07T06:53:53.744Z,5.10
2022-10-07T06:56:23.523Z,5.37
2022-10-07T06:58:51.941Z,6.63
2022-10-07T07:01:20.425Z,6.57
2022-10-07T07:03:48.998Z,8.43
2022-10-07T07:06:18.025Z,7.67
2022-10-07T07:08:48.057Z,8.37
2022-10-07T07:11:36.241Z,7.33
2022-10-07T07:14:07.041Z,6.40
2022-10-07T07:16:36.201Z,6.67
2022-10-07T07:19:08.637Z,6.57
2022-10-07T07:21:38.220Z,6.80
2022-10-07T07:24:07.819Z,6.30
2022-10-07T07:26:37.812Z,6.63
2022-10-07T07:29:07.967Z,6.80
2022-10-07T07:31:37.400Z,6.63
2022-10-07T07:34:11.437Z,7.30
2022-10-07T07:36:43.642Z,6.40
2022-10-07T07:39:15.564Z,7.00
2022-10-07T07:41:46.843Z,6.60
2022-10-07T07:44:18.755Z,8.40
2022-10-07T07:46:51.307Z,7.27
2022-10-07T07:49:20.934Z,7.30
2022-10-07T07:51:50.153Z,6.93
2022-10-07T07:54:19.062Z,7.10
2022-10-07T07:56:47.428Z,7.03
2022-10-07T07:59:17.170Z,7.17
2022-10-07T08:01:46.444Z,7.60
2022-10-07T08:04:15.253Z,7.63
2022-10-07T08:06:44.133Z,7.03
2022-10-07T08:09:13.116Z,8.73
2022-10-07T08:11:43.679Z,7.30
2022-10-07T08:14:13.404Z,8.00
2022-10-07T08:16:44.955Z,6.97
2022-10-07T08:19:13.427Z,6.57
2022-10-07T08:21:42.045Z,6.10
2022-10-07T08:24:12.730Z,6.60
2022-10-07T08:26:41.541Z,6.27
2022-10-07T08:29:10.410Z,6.80
2022-10-07T08:31:38.720Z,6.67
2022-10-07T08:34:08.539Z,6.90
2022-10-07T08:36:37.540Z,6.47
2022-10-07T08:39:06.380Z,5.50
2022-10-07T08:41:59.508Z,5.57
2022-10-07T08:44:32.605Z,6.30
2022-10-07T08:47:12.487Z,6.53
2022-10-07T08:49:54.506Z,6.87
2022-10-07T08:52:41.337Z,5.93
2022-10-07T08:55:18.719Z,6.07
2022-10-07T08:58:04.351Z,6.37
2022-10-07T09:00:41.987Z,6.50
2022-10-07T09:03:25.218Z,7.23
2022-10-07T09:05:58.752Z,7.37
2022-10-07T09:08:32.604Z,6.57
2022-10-07T09:11:15.735Z,6.90
2022-10-07T09:13:49.706Z,7.67
2022-10-07T09:16:25.615Z,6.60
2022-10-07T09:18:57.113Z,7.43
2022-10-07T09:21:34.028Z,7.47
2022-10-07T09:24:18.931Z,7.27
2022-10-07T09:26:47.572Z,7.37
2022-10-07T09:29:19.627Z,7.13
2022-10-07T09:31:49.397Z,6.93
2022-10-07T09:34:23.366Z,7.60
2022-10-07T09:37:20.733Z,8.50
2022-10-07T09:39:51.299Z,8.17
2022-10-07T09:42:29.602Z,8.43
2022-10-07T09:45:01.188Z,8.00
2022-10-07T09:47:33.391Z,7.67
2022-10-07T09:50:01.776Z,7.20
2022-10-07T09:52:33.322Z,7.90
2022-10-07T09:55:31.712Z,7.83
2022-10-07T09:58:01.867Z,7.63
2022-10-07T10:00:41.622Z,7.33
2022-10-07T10:03:10.308Z,7.97
2022-10-07T10:05:40.702Z,7.93
2022-10-07T10:08:26.604Z,8.17
2022-10-07T10:10:56.594Z,6.60
2022-10-07T10:13:29.074Z,7.53
2022-10-07T10:15:58.315Z,7.87
2022-10-07T10:18:33.350Z,7.13
2022-10-07T10:21:21.727Z,7.03
2022-10-07T10:23:53.615Z,7.70
2022-10-07T10:26:34.172Z,6.73
2022-10-07T10:29:18.420Z,8.77
2022-10-07T10:32:08.707Z,6.50
2022-10-07T10:34:44.083Z,7.03
2022-10-07T10:37:18.452Z,6.47
2022-10-07T10:39:58.600Z,6.47
2022-10-07T10:42:34.361Z,5.93
2022-10-07T10:45:15.534Z,5.83
2022-10-07T10:48:07.444Z,6.10
2022-10-07T10:50:45.696Z,5.80
2022-10-07T10:53:29.465Z,5.77
2022-10-07T10:56:21.417Z,5.40
2022-10-07T10:59:07.003Z,5.93
2022-10-07T11:01:38.282Z,6.10
2022-10-07T11:04:26.127Z,5.83
2022-10-07T11:06:59.847Z,6.10
2022-10-07T11:09:40.039Z,5.27
2022-10-07T11:12:26.182Z,5.73
2022-10-07T11:14:58.968Z,5.47
2022-10-07T11:17:31.744Z,6.07
2022-10-07T11:20:13.828Z,5.63
2022-10-07T11:22:53.511Z,6.43
2022-10-07T11:25:30.344Z,6.97
2022-10-07T11:28:08.842Z,6.63
2022-10-07T11:30:47.773Z,7.20
2022-10-07T11:33:24.265Z,7.17
2022-10-07T11:35:58.511Z,8.10
2022-10-07T11:38:33.421Z,7.50
2022-10-07T11:41:08.250Z,7.00
2022-10-07T11:43:45.225Z,6.90
2022-10-07T11:46:19.620Z,7.03
2022-10-07T11:48:53.648Z,7.63
2022-10-07T11:51:28.108Z,11.23
2022-10-07T11:54:03.005Z,8.53
2022-10-07T11:56:38.570Z,7.87
2022-10-07T11:59:08.759Z,8.30
2022-10-07T12:01:52.532Z,13.13
2022-10-07T12:04:41.679Z,7.10
2022-10-07T12:07:50.905Z,7.50
2022-10-07T12:10:24.258Z,8.23
2022-10-07T12:12:55.479Z,8.70
2022-10-07T12:15:34.720Z,8.17
2022-10-07T12:18:30.984Z,10.37
2022-10-07T12:21:03.802Z,10.60
2022-10-07T12:23:42.794Z,7.93
2022-10-07T12:26:50.318Z,8.87
2022-10-07T12:29:31.234Z,8.60
2022-10-07T12:32:02.115Z,7.87
2022-10-07T12:34:47.364Z,7.10
2022-10-07T12:37:50.845Z,8.07
2022-10-07T12:40:25.889Z,8.30
2022-10-07T12:43:10.289Z,10.50
2022-10-07T12:45:43.458Z,9.50
2022-10-07T12:48:21.469Z,10.67
2022-10-07T12:50:53.951Z,12.33
2022-10-07T12:53:26.251Z,9.40
2022-10-07T12:55:56.307Z,8.47
2022-10-07T12:59:10.575Z,8.00
2022-10-07T13:01:59.558Z,7.60
2022-10-07T13:04:51.353Z,9.37
2022-10-07T13:07:53.776Z,13.30
2022-10-07T13:10:43.475Z,9.27
2022-10-07T13:13:20.106Z,8.80
2022-10-07T13:15:54.135Z,9.97
2022-10-07T13:18:31.816Z,8.10
2022-10-07T13:21:11.896Z,8.50
2022-10-07T13:23:40.530Z,8.20
2022-10-07T13:26:13.190Z,10.70
2022-10-07T13:28:48.219Z,8.27
2022-10-07T13:31:21.365Z,7.20
2022-10-07T13:33:50.463Z,8.23
2022-10-07T13:36:23.616Z,8.03
2022-10-07T13:38:54.264Z,9.77
2022-10-07T13:41:26.155Z,8.03
2022-10-07T13:43:59.262Z,15.13
2022-10-07T13:46:31.242Z,14.13
2022-10-07T13:49:00.488Z,11.30
2022-10-07T13:51:34.661Z,12.57
2022-10-07T13:54:05.642Z,12.93
2022-10-07T13:56:39.296Z,11.50
2022-10-07T13:59:10.538Z,10.83
2022-10-07T14:01:40.745Z,14.80
2022-10-07T14:04:27.532Z,9.90
2022-10-07T14:07:02.777Z,7.87
2022-10-07T14:09:38.288Z,8.47
2022-10-07T14:12:09.519Z,7.27
2022-10-07T14:14:40.885Z,7.30
2022-10-07T14:17:12.819Z,7.63
2022-10-07T14:19:41.210Z,7.60
2022-10-07T14:22:20.259Z,9.27
2022-10-07T14:24:58.219Z,10.33
2022-10-07T14:27:55.958Z,6.70
2022-10-07T14:30:56.494Z,7.73
2022-10-07T14:33:47.757Z,7.53
2022-10-07T14:36:18.261Z,7.97
2022-10-07T14:38:49.752Z,8.20
2022-10-07T14:41:21.280Z,8.60
2022-10-07T14:43:52.712Z,25.03
2022-10-07T14:46:23.503Z,12.03
2022-10-07T14:48:53.611Z,8.50
2022-10-07T14:51:23.975Z,11.93
2022-10-07T14:53:55.666Z,8.20
2022-10-07T14:56:29.208Z,9.23
2022-10-07T14:58:57.899Z,9.23
2022-10-07T15:01:28.297Z,8.23
2022-10-07T15:03:57.026Z,18.67
2022-10-07T15:06:26.108Z,11.50
2022-10-07T15:08:56.915Z,12.43
2022-10-07T15:11:25.305Z,8.90
2022-10-07T15:13:54.067Z,8.67
2022-10-07T15:16:25.041Z,8.37
2022-10-07T15:18:53.808Z,9.03
2022-10-07T15:21:23.327Z,9.07
2022-10-07T15:23:53.089Z,8.33
2022-10-07T15:26:25.429Z,8.90
2022-10-07T15:28:55.344Z,9.97
2022-10-07T15:31:24.716Z,8.87
2022-10-07T15:33:56.409Z,8.40
2022-10-07T15:36:25.838Z,10.87
2022-10-07T15:38:54.333Z,9.87
2022-10-07T15:41:38.371Z,8.30
2022-10-07T15:44:08.331Z,9.33
2022-10-07T15:46:36.777Z,9.93
2022-10-07T15:49:05.732Z,9.47
2022-10-07T15:51:36.313Z,9.53
2022-10-07T15:54:05.287Z,9.17
2022-10-07T15:56:34.208Z,9.57
2022-10-07T15:59:04.966Z,9.57
2022-10-07T16:01:33.416Z,9.10
2022-10-07T16:04:03.536Z,10.03
2022-10-07T16:06:33.638Z,8.43
2022-10-07T16:09:02.247Z,8.33
2022-10-07T16:11:33.044Z,8.70
2022-10-07T16:14:02.467Z,8.67
2022-10-07T16:16:33.056Z,8.97
2022-10-07T16:19:02.496Z,8.73
2022-10-07T16:21:33.405Z,8.40
2022-10-07T16:24:03.445Z,10.23
2022-10-07T16:26:34.499Z,8.20
2022-10-07T16:29:22.133Z,8.73
2022-10-07T16:31:58.022Z,9.37
2022-10-07T16:34:28.597Z,9.40
2022-10-07T16:36:58.507Z,9.80
2022-10-07T16:39:27.053Z,9.33
2022-10-07T16:41:56.478Z,9.17
2022-10-07T16:44:25.715Z,9.27
2022-10-07T16:46:57.044Z,9.87
2022-10-07T16:49:27.499Z,10.03
2022-10-07T16:51:56.515Z,10.30
2022-10-07T16:54:25.179Z,10.10
2022-10-07T16:56:54.129Z,10.90
2022-10-07T16:59:24.812Z,10.27
2022-10-07T17:01:56.639Z,10.67
2022-10-07T17:04:25.968Z,10.27
2022-10-07T17:06:54.805Z,11.00
2022-10-07T17:09:24.832Z,10.43
2022-10-07T17:11:53.407Z,11.67
2022-10-07T17:14:23.155Z,11.73
2022-10-07T17:16:53.109Z,11.30
2022-10-07T17:19:25.552Z,10.97
2022-10-07T17:21:55.167Z,11.07
2022-10-07T17:24:24.693Z,10.70
2022-10-07T17:26:53.590Z,11.93
2022-10-07T17:29:26.053Z,10.93
2022-10-07T17:31:55.216Z,10.90
2022-10-07T17:34:25.264Z,11.10
2022-10-07T17:36:54.171Z,12.10
2022-10-07T17:39:22.900Z,12.07
2022-10-07T17:41:51.312Z,15.17
2022-10-07T17:44:21.518Z,13.43
2022-10-07T17:46:50.309Z,13.50
2022-10-07T17:49:18.809Z,11.80
2022-10-07T17:51:48.685Z,12.03
2022-10-07T17:54:17.101Z,13.00
2022-10-07T17:56:45.735Z,15.07
2022-10-07T17:59:14.426Z,13.40
2022-10-07T18:01:44.514Z,14.33
2022-10-07T18:04:15.504Z,17.20
2022-10-07T18:06:46.871Z,15.87
2022-10-07T18:09:19.406Z,15.37
2022-10-07T18:12:01.986Z,13.17
2022-10-07T18:14:53.241Z,12.23
2022-10-07T18:17:25.432Z,12.13
2022-10-07T18:19:53.864Z,13.57
2022-10-07T18:22:22.379Z,11.87
2022-10-07T18:24:52.392Z,16.20
2022-10-07T18:27:26.886Z,14.43
2022-10-07T18:29:55.635Z,14.17
2022-10-07T18:32:24.943Z,13.17
2022-10-07T18:34:53.328Z,12.73
2022-10-07T18:37:22.981Z,12.43
2022-10-07T18:39:52.738Z,13.77
2022-10-07T18:42:21.130Z,15.77
2022-10-07T18:44:50.590Z,14.10
2022-10-07T18:47:19.182Z,12.37
2022-10-07T18:49:47.570Z,12.43
2022-10-07T18:52:15.984Z,13.03
2022-10-07T18:54:44.320Z,14.23
2022-10-07T18:57:14.334Z,13.70
2022-10-07T18:59:42.808Z,14.00
2022-10-07T19:02:12.402Z,13.90
2022-10-07T19:04:41.057Z,14.00
2022-10-07T19:07:09.660Z,13.30
2022-10-07T19:09:38.188Z,13.23
2022-10-07T19:12:26.885Z,14.57
2022-10-07T19:14:55.659Z,14.50
2022-10-07T19:17:24.432Z,13.80
2022-10-07T19:19:53.118Z,13.97
2022-10-07T19:22:22.344Z,13.03
2022-10-07T19:25:08.409Z,14.83
2022-10-07T19:27:36.965Z,13.73
2022-10-07T19:30:08.238Z,14.20
2022-10-07T19:32:36.836Z,14.97
2022-10-07T19:35:06.428Z,14.63
2022-10-07T19:37:34.780Z,15.20
2022-10-07T19:40:03.336Z,15.83
2022-10-07T19:42:31.798Z,15.83
2022-10-07T19:45:00.175Z,16.43
2022-10-07T19:47:30.445Z,14.87
2022-10-07T19:49:58.824Z,15.37
2022-10-07T19:52:27.798Z,15.73
2022-10-07T19:54:56.160Z,15.40
2022-10-07T19:57:24.656Z,15.53
2022-10-07T19:59:53.044Z,16.27
2022-10-07T20:02:21.514Z,16.37
2022-10-07T20:04:51.690Z,16.87
2022-10-07T20:07:20.210Z,18.63
2022-10-07T20:09:48.559Z,18.23
2022-10-07T20:12:16.900Z,16.43
2022-10-07T20:14:45.494Z,16.87
2022-10-07T20:17:13.892Z,17.53
2022-10-07T20:19:42.307Z,17.57
2022-10-07T20:22:12.633Z,17.00
2022-10-07T20:24:41.002Z,20.87
2022-10-07T20:27:09.395Z,43.83
2022-10-07T20:29:57.098Z,18.37
2022-10-07T20:32:26.198Z,17.53
2022-10-07T20:34:54.953Z,17.10
2022-10-07T20:37:24.633Z,16.23
2022-10-07T20:40:10.280Z,15.80
2022-10-07T20:42:42.253Z,17.53
2022-10-07T20:45:14.415Z,18.40
2022-10-07T20:47:44.381Z,18.33
2022-10-07T20:50:13.035Z,18.20
2022-10-07T20:52:43.790Z,19.73
2022-10-07T20:55:14.311Z,19.00
2022-10-07T20:57:42.828Z,20.53
2022-10-07T21:00:16.320Z,83.27
2022-10-07T21:02:45.626Z,19.80
2022-10-07T21:05:14.416Z,16.30
2022-10-07T21:07:44.291Z,15.77
2022-10-07T21:10:12.748Z,15.37
2022-10-07T21:12:41.118Z,16.00
2022-10-07T21:15:10.072Z,16.23
2022-10-07T21:17:40.686Z,17.03
2022-10-07T21:20:09.774Z,15.73
2022-10-07T21:22:41.803Z,17.13
2022-10-07T21:25:11.961Z,17.47
2022-10-07T21:27:40.371Z,21.17
2022-10-07T21:30:10.454Z,44.07
2022-10-07T21:32:38.826Z,17.47
2022-10-07T21:35:07.861Z,16.70
2022-10-07T21:37:36.356Z,15.73
2022-10-07T21:40:04.967Z,15.70
2022-10-07T21:42:34.896Z,16.87
2022-10-07T21:45:03.357Z,16.70
2022-10-07T21:47:31.803Z,15.80
2022-10-07T21:50:00.368Z,27.90
2022-10-07T21:52:29.468Z,20.73
2022-10-07T21:54:58.320Z,19.07
2022-10-07T21:57:26.687Z,16.57
2022-10-07T21:59:56.636Z,17.40
2022-10-07T22:02:25.174Z,15.43
2022-10-07T22:04:53.565Z,15.77
2022-10-07T22:07:39.680Z,15.83
2022-10-07T22:10:09.385Z,14.90
2022-10-07T22:12:37.762Z,18.03
2022-10-07T22:15:08.865Z,19.47
2022-10-07T22:17:37.423Z,12.03
2022-10-07T22:20:06.413Z,10.73
2022-10-07T22:22:34.860Z,9.43
2022-10-07T22:25:04.899Z,9.73
2022-10-07T22:27:33.659Z,46.70
2022-10-07T22:30:02.163Z,23.47
2022-10-07T22:32:32.122Z,9.30
2022-10-07T22:35:18.071Z,9.40
2022-10-07T22:37:46.442Z,9.63
2022-10-07T22:40:14.848Z,10.43
2022-10-07T22:42:46.186Z,13.07
2022-10-07T22:45:14.967Z,13.13
2022-10-07T22:47:45.215Z,12.73
2022-10-07T22:50:16.107Z,12.97
2022-10-07T22:52:44.698Z,15.93
2022-10-07T22:55:13.293Z,14.90
2022-10-07T22:57:41.640Z,15.53
2022-10-07T23:02:59.606Z,12.03
2022-10-07T23:05:28.092Z,14.17
2022-10-07T23:07:56.556Z,13.50
2022-10-07T23:10:24.923Z,12.40
2022-10-07T23:12:53.284Z,12.73
2022-10-07T23:15:21.732Z,13.60
2022-10-07T23:17:50.326Z,12.03
2022-10-07T23:20:20.347Z,13.40
2022-10-07T23:22:49.898Z,12.73
2022-10-07T23:25:18.339Z,14.23
2022-10-07T23:27:46.891Z,14.20
2022-10-07T23:30:15.277Z,13.30
2022-10-07T23:32:45.788Z,11.30
2022-10-07T23:35:14.447Z,11.30
2022-10-07T23:37:45.283Z,12.27
2022-10-07T23:40:13.552Z,10.33
2022-10-07T23:42:41.908Z,11.20
2022-10-07T23:45:11.100Z,10.90
2022-10-07T23:47:39.484Z,11.60
2022-10-07T23:50:09.283Z,10.47
2022-10-07T23:52:38.337Z,9.57
2022-10-07T23:55:10.276Z,9.63
2022-10-07T23:57:38.691Z,9.70
